createdAt,value
2018-06-07T00:00:32.248Z,100900.17
2018-06-07T00:01:36.546Z,100902.55
2018-06-07T00:02:40.948Z,100894.66
2018-06-07T00:03:45.295Z,100897.36
2018-06-07T00:04:49.732Z,100897.55
2018-06-07T00:05:54.330Z,100899.41
2018-06-07T00:06:59.255Z,100893.05
2018-06-07T00:08:03.822Z,100891.70
2018-06-07T00:09:08.430Z,100893.27
2018-06-07T00:10:12.786Z,100894.30
2018-06-07T00:11:17.259Z,100887.75
2018-06-07T00:12:21.626Z,100888.77
2018-06-07T00:13:25.964Z,100887.09
2018-06-07T00:14:30.352Z,100882.41
2018-06-07T00:15:34.743Z,100883.95
2018-06-07T00:16:39.195Z,100886.36
2018-06-07T00:17:43.461Z,100883.33
2018-06-07T00:18:47.839Z,100884.35
2018-06-07T00:19:52.201Z,100881.35
2018-06-07T00:20:56.588Z,100882.38
2018-06-07T00:22:00.931Z,100883.91
2018-06-07T00:23:05.490Z,100884.42
2018-06-07T00:24:09.797Z,100886.00
2018-06-07T00:25:14.174Z,100889.73
2018-06-07T00:26:18.750Z,100888.08
2018-06-07T00:27:23.082Z,100892.84
2018-06-07T00:28:27.614Z,100894.70
2018-06-07T00:29:31.912Z,100898.25
2018-06-07T00:30:36.404Z,100897.11
2018-06-07T00:31:40.789Z,100899.49
2018-06-07T00:32:45.088Z,100895.33
2018-06-07T00:33:49.395Z,100900.73
2018-06-07T00:35:56.826Z,100900.30
2018-06-07T00:37:01.221Z,100901.31
2018-06-07T00:38:05.570Z,100902.34
2018-06-07T00:39:09.994Z,100903.91
2018-06-07T00:40:14.423Z,100901.39
2018-06-07T00:41:18.721Z,100895.65
2018-06-07T00:42:23.092Z,100900.22
2018-06-07T00:43:27.385Z,100899.89
2018-06-07T00:44:31.672Z,100905.52
2018-06-07T00:45:36.170Z,100904.98
2018-06-07T00:46:40.693Z,100896.23
2018-06-07T00:47:45.072Z,100903.51
2018-06-07T00:48:49.664Z,100902.67
2018-06-07T00:49:54.140Z,100901.02
2018-06-07T00:50:58.592Z,100904.23
2018-06-07T00:52:02.923Z,100899.34
2018-06-07T00:53:07.306Z,100904.75
2018-06-07T00:54:11.903Z,100896.01
2018-06-07T00:55:16.676Z,100899.22
2018-06-07T00:56:32.064Z,100898.89
2018-06-07T00:57:36.447Z,100909.39
2018-06-07T00:58:40.805Z,100905.55
2018-06-07T00:59:45.097Z,100907.08
2018-06-07T01:00:49.726Z,100906.56
2018-06-07T01:01:54.870Z,100910.30
2018-06-07T01:02:59.201Z,100910.00
2018-06-07T01:04:03.651Z,100906.96
2018-06-07T01:05:08.068Z,100903.93
2018-06-07T01:06:12.500Z,100903.93
2018-06-07T01:07:16.837Z,100908.53
2018-06-07T01:08:21.282Z,100907.36
2018-06-07T01:09:25.693Z,100911.09
2018-06-07T01:10:30.228Z,100908.89
2018-06-07T01:11:34.921Z,100914.84
2018-06-07T01:12:39.264Z,100914.52
2018-06-07T01:13:43.737Z,100913.34
2018-06-07T01:14:48.066Z,100915.24
2018-06-07T01:15:52.407Z,100915.75
2018-06-07T01:16:56.759Z,100907.82
2018-06-07T01:18:01.148Z,100912.91
2018-06-07T01:19:05.600Z,100916.66
2018-06-07T01:20:10.255Z,100910.08
2018-06-07T01:21:14.847Z,100911.65
2018-06-07T01:22:19.127Z,100914.02
2018-06-07T01:23:24.619Z,100915.88
2018-06-07T01:24:29.098Z,100915.05
2018-06-07T01:25:33.586Z,100920.66
2018-06-07T01:26:38.008Z,100917.63
2018-06-07T01:27:42.396Z,100915.95
2018-06-07T01:28:46.745Z,100914.08
2018-06-07T01:30:02.122Z,100914.30
2018-06-07T01:31:11.684Z,100918.02
2018-06-07T01:33:33.533Z,100923.61
2018-06-07T01:34:37.995Z,100923.44
2018-06-07T01:35:42.529Z,100924.28
2018-06-07T01:36:47.008Z,100922.09
2018-06-07T01:38:02.605Z,100928.84
2018-06-07T01:39:09.692Z,100935.30
2018-06-07T01:40:14.083Z,100931.25
2018-06-07T01:41:18.553Z,100933.95
2018-06-07T01:42:22.927Z,100933.95
2018-06-07T01:43:27.235Z,100936.83
2018-06-07T01:44:31.727Z,100928.21
2018-06-07T01:45:36.476Z,100935.81
2018-06-07T01:46:41.031Z,100935.98
2018-06-07T01:47:45.364Z,100931.94
2018-06-07T01:48:49.908Z,100935.16
2018-06-07T01:49:54.231Z,100934.64
2018-06-07T01:50:58.572Z,100937.02
2018-06-07T01:52:03.061Z,100930.58
2018-06-07T01:53:07.419Z,100932.95
2018-06-07T01:54:11.738Z,100927.88
2018-06-07T01:55:16.205Z,100934.31
2018-06-07T01:56:20.524Z,100937.02
2018-06-07T01:57:24.997Z,100932.66
2018-06-07T01:58:30.027Z,100932.33
2018-06-07T01:59:34.620Z,100933.34
2018-06-07T02:00:38.976Z,100938.24
2018-06-07T02:01:43.348Z,100938.75
2018-06-07T02:02:47.593Z,100941.45
2018-06-07T02:03:51.911Z,100942.00
2018-06-07T02:04:56.480Z,100942.00
2018-06-07T02:06:00.760Z,100943.02
2018-06-07T02:07:05.079Z,100942.17
2018-06-07T02:08:09.391Z,100941.84
2018-06-07T02:09:13.811Z,100940.49
2018-06-07T02:10:18.350Z,100938.00
2018-06-07T02:11:22.727Z,100938.84
2018-06-07T02:12:27.120Z,100942.56
2018-06-07T02:13:31.484Z,100939.02
2018-06-07T02:14:35.814Z,100934.34
2018-06-07T02:15:40.419Z,100930.80
2018-06-07T02:16:44.948Z,100933.16
2018-06-07T02:17:49.268Z,100932.32
2018-06-07T02:18:53.580Z,100940.94
2018-06-07T02:19:58.447Z,100933.38
2018-06-07T02:21:02.892Z,100930.84
2018-06-07T02:22:07.192Z,100934.39
2018-06-07T02:23:11.904Z,100934.39
2018-06-07T02:24:16.532Z,100934.91
2018-06-07T02:25:20.856Z,100935.41
2018-06-07T02:26:25.140Z,100932.92
2018-06-07T02:27:29.437Z,100935.63
2018-06-07T02:28:33.740Z,100928.03
2018-06-07T02:29:38.064Z,100936.98
2018-06-07T02:30:42.368Z,100930.88
2018-06-07T02:31:46.824Z,100934.93
2018-06-07T02:32:51.331Z,100931.92
2018-06-07T02:33:55.661Z,100932.44
2018-06-07T02:35:00.032Z,100935.65
2018-06-07T02:36:04.303Z,100932.95
2018-06-07T02:37:08.623Z,100933.97
2018-06-07T02:38:13.116Z,100939.07
2018-06-07T02:39:17.483Z,100939.88
2018-06-07T02:40:22.079Z,100939.88
2018-06-07T02:41:26.390Z,100952.88
2018-06-07T02:42:30.667Z,100960.98
2018-06-07T02:43:35.071Z,100982.09
2018-06-07T02:44:39.701Z,100995.43
2018-06-07T02:45:44.317Z,101011.95
2018-06-07T02:46:48.709Z,101018.34
2018-06-07T02:47:53.142Z,101019.02
2018-06-07T02:48:57.463Z,100997.85
2018-06-07T02:50:01.783Z,100983.11
2018-06-07T02:51:06.079Z,100972.93
2018-06-07T02:52:10.417Z,100989.60
2018-06-07T02:53:14.847Z,101002.73
2018-06-07T02:54:19.188Z,101000.18
2018-06-07T02:55:23.488Z,100998.95
2018-06-07T02:56:28.028Z,100996.55
2018-06-07T02:57:32.385Z,100997.00
2018-06-07T02:58:36.811Z,100983.30
2018-06-07T02:59:41.041Z,100982.46
2018-06-07T03:00:45.544Z,100978.73
2018-06-07T03:01:49.836Z,100994.75
2018-06-07T03:02:54.163Z,100998.63
2018-06-07T03:03:58.688Z,100998.12
2018-06-07T03:05:03.128Z,100997.61
2018-06-07T03:06:07.473Z,101003.64
2018-06-07T03:07:11.731Z,100996.37
2018-06-07T03:08:16.104Z,100985.34
2018-06-07T03:09:20.625Z,100977.56
2018-06-07T03:10:25.159Z,100975.19
2018-06-07T03:11:29.635Z,100977.90
2018-06-07T03:12:34.005Z,100980.90
2018-06-07T03:13:38.634Z,100981.74
2018-06-07T03:14:43.099Z,100980.39
2018-06-07T03:15:47.592Z,100984.78
2018-06-07T03:16:51.887Z,100986.64
2018-06-07T03:17:56.338Z,100985.80
2018-06-07T03:19:00.816Z,100986.64
2018-06-07T03:20:05.384Z,100993.07
2018-06-07T03:21:09.660Z,100990.37
2018-06-07T03:22:14.137Z,100999.83
2018-06-07T03:23:18.630Z,100991.93
2018-06-07T03:24:23.064Z,100996.50
2018-06-07T03:25:27.583Z,100993.80
2018-06-07T03:26:31.849Z,101001.91
2018-06-07T03:27:36.046Z,100999.71
2018-06-07T03:28:40.368Z,101006.47
2018-06-07T03:29:44.888Z,101016.14
2018-06-07T03:30:49.162Z,101010.73
2018-06-07T03:31:53.541Z,101007.70
2018-06-07T03:32:58.177Z,101009.77
2018-06-07T03:34:02.508Z,101006.53
2018-06-07T03:35:06.799Z,101010.59
2018-06-07T03:36:11.248Z,101011.42
2018-06-07T03:37:15.750Z,101006.73
2018-06-07T03:38:20.242Z,101003.70
2018-06-07T03:39:24.562Z,101004.55
2018-06-07T03:40:29.233Z,101003.70
2018-06-07T03:41:33.878Z,101007.25
2018-06-07T03:42:38.234Z,101007.76
2018-06-07T03:43:42.578Z,101008.60
2018-06-07T03:44:46.916Z,101009.11
2018-06-07T03:45:51.608Z,101006.41
2018-06-07T03:46:55.930Z,101006.41
2018-06-07T03:48:00.292Z,101007.76
2018-06-07T03:49:04.621Z,101010.80
2018-06-07T03:50:08.869Z,101011.81
2018-06-07T03:51:13.224Z,101012.98
2018-06-07T03:52:17.579Z,101012.48
2018-06-07T03:53:21.904Z,101022.24
2018-06-07T03:54:26.488Z,101019.23
2018-06-07T03:55:30.773Z,101015.48
2018-06-07T03:56:35.203Z,101021.22
2018-06-07T03:57:39.488Z,101020.20
2018-06-07T03:58:43.980Z,101025.06
2018-06-07T03:59:48.320Z,101020.83
2018-06-07T04:00:52.877Z,101021.16
2018-06-07T04:01:57.396Z,101029.06
2018-06-07T04:03:01.742Z,101027.20
2018-06-07T04:04:06.178Z,101028.56
2018-06-07T04:05:10.481Z,101027.53
2018-06-07T04:06:14.827Z,101028.16
2018-06-07T04:07:19.209Z,101030.88
2018-06-07T04:08:23.535Z,101028.16
2018-06-07T04:09:27.946Z,101032.89
2018-06-07T04:10:32.268Z,101028.83
2018-06-07T04:11:36.827Z,101036.73
2018-06-07T04:12:41.286Z,101039.26
2018-06-07T04:13:45.700Z,101034.36
2018-06-07T04:14:50.034Z,101035.20
2018-06-07T04:15:54.485Z,101036.55
2018-06-07T04:16:58.952Z,101040.91
2018-06-07T04:18:03.315Z,101045.30
2018-06-07T04:19:07.703Z,101041.24
2018-06-07T04:20:11.991Z,101045.12
2018-06-07T04:21:16.389Z,101040.52
2018-06-07T04:22:20.927Z,101040.52
2018-06-07T04:23:25.421Z,101044.91
2018-06-07T04:24:29.875Z,101041.36
2018-06-07T04:25:34.210Z,101044.91
2018-06-07T04:26:38.792Z,101048.79
2018-06-07T04:27:43.264Z,101044.73
2018-06-07T04:28:47.603Z,101045.88
2018-06-07T04:29:51.912Z,101044.52
2018-06-07T04:30:56.689Z,101041.30
2018-06-07T04:32:01.101Z,101048.70
2018-06-07T04:33:05.595Z,101042.48
2018-06-07T04:34:09.995Z,101043.95
2018-06-07T04:35:14.522Z,101043.44
2018-06-07T04:36:19.075Z,101043.73
2018-06-07T04:37:23.447Z,101042.72
2018-06-07T04:38:28.189Z,101042.33
2018-06-07T04:39:33.238Z,101042.66
2018-06-07T04:40:37.714Z,101044.31
2018-06-07T04:41:42.263Z,101043.28
2018-06-07T04:42:46.595Z,101045.81
2018-06-07T04:43:51.106Z,101046.14
2018-06-07T04:44:55.408Z,101047.83
2018-06-07T04:46:00.080Z,101042.23
2018-06-07T04:47:04.716Z,101043.89
2018-06-07T04:48:09.017Z,101042.35
2018-06-07T04:49:13.359Z,101044.84
2018-06-07T04:50:17.842Z,101046.86
2018-06-07T04:51:22.183Z,101042.29
2018-06-07T04:52:27.082Z,101051.37
2018-06-07T04:53:31.369Z,101051.16
2018-06-07T04:54:35.743Z,101053.98
2018-06-07T04:55:40.191Z,101056.83
2018-06-07T04:56:44.708Z,101055.78
2018-06-07T04:57:48.994Z,101053.73
2018-06-07T04:58:53.366Z,101053.00
2018-06-07T04:59:57.704Z,101061.75
2018-06-07T05:01:02.317Z,101063.05
2018-06-07T05:02:06.658Z,101055.58
2018-06-07T05:03:11.303Z,101063.30
2018-06-07T05:04:15.615Z,101062.40
2018-06-07T05:05:20.102Z,101062.52
2018-06-07T05:06:24.644Z,101062.12
2018-06-07T05:07:28.999Z,101056.63
2018-06-07T05:08:33.367Z,101059.56
2018-06-07T05:09:37.578Z,101062.83
2018-06-07T05:10:41.875Z,101059.87
2018-06-07T05:11:46.275Z,101058.23
2018-06-07T05:12:50.643Z,101058.99
2018-06-07T05:13:54.970Z,101050.91
2018-06-07T05:14:59.448Z,101059.91
2018-06-07T05:16:04.008Z,101060.45
2018-06-07T05:17:08.484Z,101060.19
2018-06-07T05:18:12.862Z,101063.63
2018-06-07T05:19:17.326Z,101068.35
2018-06-07T05:20:21.814Z,101065.94
2018-06-07T05:21:26.195Z,101065.23
2018-06-07T05:22:30.568Z,101070.44
2018-06-07T05:23:34.938Z,101069.52
2018-06-07T05:24:39.447Z,101072.37
2018-06-07T05:25:44.023Z,101075.80
2018-06-07T05:26:48.455Z,101074.70
2018-06-07T05:27:52.926Z,101072.11
2018-06-07T05:28:57.544Z,101070.59
2018-06-07T05:30:02.216Z,101074.81
2018-06-07T05:31:06.487Z,101075.34
2018-06-07T05:32:11.108Z,101081.41
2018-06-07T05:33:15.520Z,101076.00
2018-06-07T05:34:19.879Z,101076.52
2018-06-07T05:35:24.394Z,101083.83
2018-06-07T05:36:28.887Z,101077.18
2018-06-07T05:37:33.228Z,101077.61
2018-06-07T05:38:37.640Z,101079.67
2018-06-07T05:39:42.256Z,101081.27
2018-06-07T05:40:46.527Z,101080.33
2018-06-07T05:41:51.031Z,101086.28
2018-06-07T05:42:55.324Z,101088.05
2018-06-07T05:43:59.615Z,101082.20
2018-06-07T05:45:04.255Z,101086.69
2018-06-07T05:46:08.907Z,101091.17
2018-06-07T05:47:13.218Z,101088.84
2018-06-07T05:48:17.731Z,101091.97
2018-06-07T05:49:22.355Z,101092.39
2018-06-07T05:50:26.669Z,101089.06
2018-06-07T05:51:31.100Z,101090.31
2018-06-07T05:52:35.483Z,101093.22
2018-06-07T05:53:39.796Z,101089.15
2018-06-07T05:54:44.484Z,101093.02
2018-06-07T05:55:48.829Z,101088.73
2018-06-07T05:56:53.338Z,101094.48
2018-06-07T05:57:57.676Z,101092.39
2018-06-07T05:59:02.004Z,101098.76
2018-06-07T06:00:06.518Z,101096.70
2018-06-07T06:01:10.868Z,101096.98
2018-06-07T06:02:15.424Z,101094.92
2018-06-07T06:03:19.722Z,101091.80
2018-06-07T06:04:24.413Z,101092.83
2018-06-07T06:05:29.041Z,101086.98
2018-06-07T06:06:33.550Z,101089.09
2018-06-07T06:07:37.828Z,101094.75
2018-06-07T06:08:42.731Z,101091.75
2018-06-07T06:09:47.733Z,101093.52
2018-06-07T06:10:52.447Z,101097.89
2018-06-07T06:11:56.765Z,101096.75
2018-06-07T06:13:01.267Z,101100.92
2018-06-07T06:14:05.570Z,101098.29
2018-06-07T06:15:10.046Z,101096.41
2018-06-07T06:16:14.430Z,101099.95
2018-06-07T06:17:18.697Z,101096.22
2018-06-07T06:18:23.278Z,101097.84
2018-06-07T06:19:27.705Z,101096.27
2018-06-07T06:20:32.097Z,101094.66
2018-06-07T06:21:36.560Z,101097.36
2018-06-07T06:22:40.944Z,101095.45
2018-06-07T06:23:45.422Z,101099.83
2018-06-07T06:24:49.781Z,101095.72
2018-06-07T06:25:54.058Z,101098.41
2018-06-07T06:26:58.376Z,101100.49
2018-06-07T06:28:02.706Z,101103.94
2018-06-07T06:29:07.067Z,101101.09
2018-06-07T06:30:11.691Z,101095.53
2018-06-07T06:31:16.386Z,101102.42
2018-06-07T06:32:20.908Z,101093.30
2018-06-07T06:33:25.504Z,101095.87
2018-06-07T06:34:29.951Z,101098.78
2018-06-07T06:35:34.454Z,101097.83
2018-06-07T06:36:39.034Z,101101.47
2018-06-07T06:38:52.217Z,101101.34
2018-06-07T06:39:56.655Z,101101.50
2018-06-07T06:41:01.658Z,101107.47
2018-06-07T06:42:05.923Z,101102.87
2018-06-07T06:43:10.265Z,101104.31
2018-06-07T06:44:14.672Z,101106.59
2018-06-07T06:45:19.410Z,101104.27
2018-06-07T06:46:24.239Z,101106.34
2018-06-07T06:47:28.840Z,101104.88
2018-06-07T06:48:33.633Z,101103.60
2018-06-07T06:49:38.095Z,101105.56
2018-06-07T06:50:42.680Z,101106.41
2018-06-07T06:51:46.952Z,101104.00
2018-06-07T06:52:51.264Z,101105.12
2018-06-07T06:53:55.742Z,101104.07
2018-06-07T06:55:00.165Z,101102.79
2018-06-07T06:56:04.513Z,101107.43
2018-06-07T06:57:08.781Z,101114.00
2018-06-07T06:58:12.976Z,101112.19
2018-06-07T06:59:17.643Z,101111.75
2018-06-07T07:00:21.885Z,101111.30
2018-06-07T07:01:26.503Z,101109.42
2018-06-07T07:02:31.022Z,101110.57
2018-06-07T07:03:35.348Z,101112.53
2018-06-07T07:04:40.378Z,101112.84
2018-06-07T07:05:44.749Z,101109.89
2018-06-07T07:06:49.079Z,101107.16
2018-06-07T07:07:53.276Z,101104.23
2018-06-07T07:08:57.652Z,101107.23
2018-06-07T07:10:02.140Z,101105.34
2018-06-07T07:11:06.539Z,101113.84
2018-06-07T07:12:11.202Z,101111.11
2018-06-07T07:13:15.502Z,101106.71
2018-06-07T07:14:19.847Z,101109.96
2018-06-07T07:15:24.122Z,101115.73
2018-06-07T07:16:28.356Z,101109.67
2018-06-07T07:17:32.822Z,101116.17
2018-06-07T07:18:37.057Z,101108.52
2018-06-07T07:19:41.725Z,101110.72
2018-06-07T07:20:46.029Z,101110.41
2018-06-07T07:21:50.545Z,101110.57
2018-06-07T07:22:54.742Z,101107.14
2018-06-07T07:23:59.049Z,101111.98
2018-06-07T07:25:03.435Z,101108.63
2018-06-07T07:26:07.831Z,101107.79
2018-06-07T07:27:12.185Z,101107.51
2018-06-07T07:28:16.392Z,101108.63
2018-06-07T07:29:20.675Z,101111.43
2018-06-07T07:30:25.222Z,101110.07
2018-06-07T07:31:29.709Z,101106.30
2018-06-07T07:32:34.181Z,101105.25
2018-06-07T07:33:38.582Z,101106.09
2018-06-07T07:34:43.318Z,101106.62
2018-06-07T07:35:47.888Z,101112.06
2018-06-07T07:36:52.175Z,101112.66
2018-06-07T07:37:56.611Z,101112.14
2018-06-07T07:39:01.352Z,101110.25
2018-06-07T07:40:05.827Z,101113.82
2018-06-07T07:41:10.128Z,101116.30
2018-06-07T07:42:14.375Z,101113.30
2018-06-07T07:43:18.812Z,101110.57
2018-06-07T07:44:23.268Z,101111.37
2018-06-07T07:45:27.722Z,101114.10
2018-06-07T07:46:32.423Z,101110.57
2018-06-07T07:47:37.018Z,101111.37
2018-06-07T07:48:41.457Z,101111.62
2018-06-07T07:49:45.947Z,101107.30
2018-06-07T07:50:50.509Z,101117.06
2018-06-07T07:51:54.855Z,101113.30
2018-06-07T07:52:59.205Z,101114.34
2018-06-07T07:54:03.936Z,101117.38
2018-06-07T07:55:08.534Z,101107.84
2018-06-07T07:56:13.131Z,101109.73
2018-06-07T07:57:17.716Z,101117.98
2018-06-07T07:58:22.039Z,101110.65
2018-06-07T07:59:26.634Z,101109.05
2018-06-07T08:00:30.909Z,101114.49
2018-06-07T08:01:35.452Z,101113.13
2018-06-07T08:02:39.783Z,101109.36
2018-06-07T08:03:44.141Z,101106.64
2018-06-07T08:04:48.535Z,101108.59
2018-06-07T08:05:52.826Z,101108.59
2018-06-07T08:06:57.355Z,101113.31
2018-06-07T08:08:01.725Z,101109.83
2018-06-07T08:09:06.520Z,101111.50
2018-06-07T08:10:10.822Z,101113.39
2018-06-07T08:11:15.618Z,101111.50
2018-06-07T08:12:19.988Z,101113.19
2018-06-07T08:13:24.336Z,101102.56
2018-06-07T08:14:28.527Z,101104.56
2018-06-07T08:15:32.849Z,101106.00
2018-06-07T08:16:37.091Z,101112.16
2018-06-07T08:17:41.609Z,101111.59
2018-06-07T08:18:46.119Z,101107.61
2018-06-07T08:19:50.392Z,101102.45
2018-06-07T08:20:54.925Z,101101.40
2018-06-07T08:21:59.576Z,101100.88
2018-06-07T08:23:03.826Z,101100.63
2018-06-07T08:24:08.234Z,101098.53
2018-06-07T08:25:12.780Z,101099.97
2018-06-07T08:26:17.260Z,101100.56
2018-06-07T08:27:21.696Z,101101.75
2018-06-07T08:28:26.174Z,101102.06
2018-06-07T08:29:30.740Z,101105.08
2018-06-07T08:30:35.119Z,101106.44
2018-06-07T08:31:39.659Z,101104.03
2018-06-07T08:32:43.903Z,101107.06
2018-06-07T08:33:48.152Z,101099.48
2018-06-07T08:34:52.513Z,101111.23
2018-06-07T08:35:57.063Z,101107.98
2018-06-07T08:37:01.607Z,101105.53
2018-06-07T08:38:05.923Z,101113.19
2018-06-07T08:39:10.194Z,101109.94
2018-06-07T08:40:14.506Z,101109.94
2018-06-07T08:41:19.301Z,101113.30
2018-06-07T08:42:23.752Z,101103.75
2018-06-07T08:43:28.056Z,101112.53
2018-06-07T08:44:32.404Z,101112.28
2018-06-07T08:45:36.665Z,101112.84
2018-06-07T08:46:41.496Z,101116.69
2018-06-07T08:47:45.831Z,101121.09
2018-06-07T08:48:50.268Z,101121.09
2018-06-07T08:49:54.827Z,101119.48
2018-06-07T08:50:59.131Z,101119.27
2018-06-07T08:52:03.531Z,101120.11
2018-06-07T08:53:07.884Z,101116.30
2018-06-07T08:54:12.432Z,101122.59
2018-06-07T08:55:16.693Z,101118.82
2018-06-07T08:56:21.291Z,101121.62
2018-06-07T08:57:25.752Z,101123.05
2018-06-07T08:58:30.072Z,101116.79
2018-06-07T08:59:34.707Z,101118.44
2018-06-07T09:00:38.926Z,101122.84
2018-06-07T09:01:43.571Z,101123.16
2018-06-07T09:02:48.288Z,101121.79
2018-06-07T09:03:52.660Z,101122.70
2018-06-07T09:04:57.270Z,101116.93
2018-06-07T09:06:01.588Z,101121.93
2018-06-07T09:07:05.979Z,101125.28
2018-06-07T09:08:10.315Z,101125.95
2018-06-07T09:09:14.882Z,101124.44
2018-06-07T09:10:19.221Z,101120.94
2018-06-07T09:11:23.728Z,101119.64
2018-06-07T09:12:28.213Z,101117.02
2018-06-07T09:13:32.629Z,101118.66
2018-06-07T09:14:37.023Z,101118.66
2018-06-07T09:15:41.321Z,101111.63
2018-06-07T09:16:45.593Z,101113.89
2018-06-07T09:17:49.865Z,101120.53
2018-06-07T09:18:54.089Z,101113.16
2018-06-07T09:19:58.410Z,101117.63
2018-06-07T09:21:03.660Z,101115.00
2018-06-07T09:22:08.056Z,101118.84
2018-06-07T09:23:12.436Z,101115.97
2018-06-07T09:24:16.695Z,101118.23
2018-06-07T09:25:21.635Z,101118.61
2018-06-07T09:26:32.643Z,101118.15
2018-06-07T09:27:37.123Z,101119.05
2018-06-07T09:28:41.386Z,101118.00
2018-06-07T09:29:46.063Z,101124.36
2018-06-07T09:30:50.572Z,101124.11
2018-06-07T09:31:54.963Z,101125.57
2018-06-07T09:32:59.368Z,101125.11
2018-06-07T09:34:03.915Z,101122.97
2018-06-07T09:35:08.255Z,101126.07
2018-06-07T09:36:12.628Z,101122.81
2018-06-07T09:37:17.437Z,101118.47
2018-06-07T09:38:21.802Z,101122.66
2018-06-07T09:39:26.286Z,101124.62
2018-06-07T09:40:30.645Z,101125.52
2018-06-07T09:41:34.974Z,101128.03
2018-06-07T09:42:39.710Z,101128.30
2018-06-07T09:43:43.991Z,101128.09
2018-06-07T09:44:48.414Z,101133.30
2018-06-07T09:45:53.309Z,101134.14
2018-06-07T09:46:58.347Z,101127.97
2018-06-07T09:48:02.678Z,101128.09
2018-06-07T09:49:07.200Z,101125.94
2018-06-07T09:50:11.650Z,101127.68
2018-06-07T09:51:15.967Z,101124.11
2018-06-07T09:52:20.468Z,101126.99
2018-06-07T09:53:24.790Z,101127.36
2018-06-07T09:54:29.091Z,101124.75
2018-06-07T09:55:33.689Z,101128.16
2018-06-07T09:56:38.123Z,101126.91
2018-06-07T09:57:43.045Z,101132.20
2018-06-07T09:58:47.845Z,101129.84
2018-06-07T09:59:52.208Z,101132.77
2018-06-07T10:00:56.495Z,101122.00
2018-06-07T10:02:00.736Z,101129.93
2018-06-07T10:03:05.086Z,101128.56
2018-06-07T10:04:09.457Z,101129.77
2018-06-07T10:05:13.774Z,101133.95
2018-06-07T10:06:18.107Z,101137.44
2018-06-07T10:07:22.371Z,101126.66
2018-06-07T10:08:26.842Z,101134.03
2018-06-07T10:09:31.086Z,101125.47
2018-06-07T10:10:35.631Z,101132.13
2018-06-07T10:11:40.404Z,101134.11
2018-06-07T10:12:44.786Z,101131.97
2018-06-07T10:13:49.579Z,101131.97
2018-06-07T10:14:54.195Z,101138.63
2018-06-07T10:15:58.515Z,101133.17
2018-06-07T10:17:03.035Z,101125.66
2018-06-07T10:18:07.497Z,101133.17
2018-06-07T10:19:11.772Z,101129.59
2018-06-07T10:20:16.131Z,101133.47
2018-06-07T10:21:20.732Z,101128.90
2018-06-07T10:22:25.247Z,101123.29
2018-06-07T10:23:29.581Z,101141.78
2018-06-07T10:24:33.961Z,101135.56
2018-06-07T10:25:38.688Z,101135.09
2018-06-07T10:26:43.394Z,101131.57
2018-06-07T10:27:47.913Z,101139.30
2018-06-07T10:28:58.924Z,101136.92
2018-06-07T10:30:03.239Z,101132.65
2018-06-07T10:31:07.644Z,101139.59
2018-06-07T10:32:12.056Z,101136.09
2018-06-07T10:33:16.385Z,101132.88
2018-06-07T10:34:20.826Z,101139.52
2018-06-07T10:35:25.503Z,101132.76
2018-06-07T10:36:29.819Z,101139.13
2018-06-07T10:37:34.052Z,101137.27
2018-06-07T10:38:38.574Z,101134.84
2018-06-07T10:39:42.971Z,101130.48
2018-06-07T10:40:47.347Z,101131.02
2018-06-07T10:41:52.121Z,101130.48
2018-06-07T10:42:56.439Z,101133.22
2018-06-07T10:44:00.827Z,101134.05
2018-06-07T10:45:05.200Z,101125.84
2018-06-07T10:46:09.530Z,101129.64
2018-06-07T10:47:14.142Z,101127.16
2018-06-07T10:48:18.652Z,101125.80
2018-06-07T10:49:22.868Z,101126.33
2018-06-07T10:50:27.326Z,101131.49
2018-06-07T10:51:31.753Z,101129.55
2018-06-07T10:52:36.130Z,101127.88
2018-06-07T10:53:40.591Z,101128.94
2018-06-07T10:54:45.008Z,101133.30
2018-06-07T10:55:49.395Z,101130.78
2018-06-07T10:56:53.938Z,101137.52
2018-06-07T10:57:58.310Z,101127.89
2018-06-07T10:59:02.673Z,101130.55
2018-06-07T11:00:07.126Z,101128.59
2018-06-07T11:01:11.559Z,101128.59
2018-06-07T11:02:16.151Z,101129.97
2018-06-07T11:03:20.568Z,101128.59
2018-06-07T11:04:24.833Z,101137.86
2018-06-07T11:05:29.449Z,101131.59
2018-06-07T11:06:33.785Z,101131.23
2018-06-07T11:07:38.132Z,101133.34
2018-06-07T11:08:42.485Z,101126.16
2018-06-07T11:09:46.803Z,101131.04
2018-06-07T11:10:51.267Z,101129.09
2018-06-07T11:11:55.920Z,101128.53
2018-06-07T11:13:00.610Z,101122.78
2018-06-07T11:14:05.660Z,101126.58
2018-06-07T11:15:09.869Z,101135.62
2018-06-07T11:16:14.263Z,101130.68
2018-06-07T11:17:18.803Z,101129.31
2018-06-07T11:18:23.122Z,101125.20
2018-06-07T11:19:27.514Z,101125.16
2018-06-07T11:20:31.788Z,101124.63
2018-06-07T11:21:36.154Z,101123.79
2018-06-07T11:22:40.794Z,101127.28
2018-06-07T11:23:45.962Z,101121.00
2018-06-07T11:24:49.410Z,101124.55
2018-06-07T11:25:53.808Z,101120.52
2018-06-07T11:26:58.210Z,101122.48
2018-06-07T11:28:02.619Z,101116.53
2018-06-07T11:29:07.305Z,101119.31
2018-06-07T11:30:14.296Z,101117.73
2018-06-07T11:31:18.881Z,101112.31
2018-06-07T11:32:23.322Z,101114.20
2018-06-07T11:33:27.648Z,101110.05
2018-06-07T11:34:32.000Z,101113.84
2018-06-07T11:35:36.360Z,101104.75
2018-06-07T11:36:40.663Z,101109.69
2018-06-07T11:37:44.960Z,101110.17
2018-06-07T11:38:49.550Z,101111.18
2018-06-07T11:39:54.008Z,101101.42
2018-06-07T11:40:58.408Z,101098.47
2018-06-07T11:42:02.827Z,101104.16
2018-06-07T11:43:07.573Z,101097.52
2018-06-07T11:44:11.817Z,101104.88
2018-06-07T11:45:16.338Z,101102.34
2018-06-07T11:46:20.954Z,101090.16
2018-06-07T11:47:25.480Z,101096.28
2018-06-07T11:48:29.803Z,101096.82
2018-06-07T11:49:34.348Z,101096.28
2018-06-07T11:50:38.836Z,101097.66
2018-06-07T11:51:43.221Z,101097.13
2018-06-07T11:52:47.759Z,101085.52
2018-06-07T11:53:52.070Z,101091.35
2018-06-07T11:54:56.647Z,101090.46
2018-06-07T11:56:01.302Z,101097.97
2018-06-07T11:57:05.951Z,101095.23
2018-06-07T11:58:10.249Z,101083.27
2018-06-07T11:59:14.581Z,101091.41
2018-06-07T12:00:19.003Z,101083.15
2018-06-07T12:01:23.425Z,101087.95
2018-06-07T12:02:27.941Z,101091.27
2018-06-07T12:03:32.272Z,101088.31
2018-06-07T12:04:36.781Z,101083.65
2018-06-07T12:05:41.143Z,101078.48
2018-06-07T12:06:45.877Z,101080.38
2018-06-07T12:07:50.380Z,101071.60
2018-06-07T12:08:55.282Z,101078.54
2018-06-07T12:09:59.708Z,101078.31
2018-06-07T12:11:04.116Z,101070.59
2018-06-07T12:12:08.490Z,101083.61
2018-06-07T12:13:12.770Z,101078.73
2018-06-07T12:14:17.358Z,101076.88
2018-06-07T12:15:22.417Z,101078.83
2018-06-07T12:16:26.786Z,101068.67
2018-06-07T12:17:31.518Z,101071.81
2018-06-07T12:18:36.117Z,101072.96
2018-06-07T12:19:40.512Z,101069.44